Ana Sayfa
METAR-TAF:

METAR-TAF

Havaalanları :

Sault Ste. Marie, Michigan, Amerika Birleşik Devletleri

Enlem: 46-15N, Boylam: 084-28W, yükseklik: 244 m

Güncel hava durumu gözlemi

Rapor saat 14:56 UTC de 29 dakika önce yapıldı.
Rüzgar kuzey/kuzeybatıdan 4 kt
Sıcaklık 18°C
Nem 77%
Basınç 1013 hPa
Görüş mesafesi: 16.1 km
5500 ft yükseklikte çok bulutlu

METAR: KCIU 211456Z AUTO 33004KT 10SM OVC055 18/14 A2991 RMK AO2 SLP124 T01830139 53007

Saat: 11:25 (15:25 UTC)


TAF: eksik

4.000'den fazla havaalanı için hava durumu gözlemleri ve tahminleri (METAR ve TAF raporları).

Kullanılabilir istasyonlar harita üzerinde sarı ve kırmızı noktalarla gösterilir.

İstasyonun adını görmek için fareyi noktanın üzerinde gezdirin.

Sonrasında hava gözlem ve tahminlerini görmek için tıklayın.

Haritayı değiştirmek için: yaklaştırmak için siyah artı işaretli yeşil düğmeye ve uzaklaştırmak için de eksi işaretli düğmeye hızla tıklayın; bitişik haritalar için yeşil okları kullanın.


METAR-TAF: